sensor_id;sensor_type;location;lat;lon;timestamp;pressure;altitude;pressure_sealevel;temperature;humidity
6194;BME280;3130;41.564;23.280;2023-01-28T00:01:26;98149.28;;;4.50;86.03
6194;BME280;3130;41.564;23.280;2023-01-28T00:03:53;98238.84;;;5.04;85.96
6194;BME280;3130;41.564;23.280;2023-01-28T00:06:20;98202.09;;;4.77;86.78
6194;BME280;3130;41.564;23.280;2023-01-28T00:08:49;98188.03;;;4.70;87.09
6194;BME280;3130;41.564;23.280;2023-01-28T00:11:16;98241.91;;;4.93;87.51
6194;BME280;3130;41.564;23.280;2023-01-28T00:13:43;98222.66;;;4.90;87.12
6194;BME280;3130;41.564;23.280;2023-01-28T00:16:10;98245.28;;;5.11;85.07
6194;BME280;3130;41.564;23.280;2023-01-28T00:18:37;98241.47;;;5.19;84.34
6194;BME280;3130;41.564;23.280;2023-01-28T00:21:06;98039.09;;;3.86;83.02
6194;BME280;3130;41.564;23.280;2023-01-28T00:23:35;98237.28;;;5.01;85.02
6194;BME280;3130;41.564;23.280;2023-01-28T00:26:06;98086.56;;;4.01;84.62
6194;BME280;3130;41.564;23.280;2023-01-28T00:28:33;98249.25;;;4.99;85.77
6194;BME280;3130;41.564;23.280;2023-01-28T00:31:05;98011.97;;;3.53;87.79
6194;BME280;3130;41.564;23.280;2023-01-28T00:33:34;98253.44;;;5.00;89.76
6194;BME280;3130;41.564;23.280;2023-01-28T00:36:02;98253.34;;;5.02;90.26
6194;BME280;3130;41.564;23.280;2023-01-28T00:38:31;98253.06;;;5.08;90.92
6194;BME280;3130;41.564;23.280;2023-01-28T00:41:08;98221.91;;;4.88;91.95
6194;BME280;3130;41.564;23.280;2023-01-28T00:43:36;98253.28;;;5.03;92.55
6194;BME280;3130;41.564;23.280;2023-01-28T00:46:03;98253.94;;;4.90;93.33
6194;BME280;3130;41.564;23.280;2023-01-28T00:48:32;98255.16;;;4.83;93.94
6194;BME280;3130;41.564;23.280;2023-01-28T00:50:59;97992.84;;;3.10;94.43
6194;BME280;3130;41.564;23.280;2023-01-28T00:53:26;98220.72;;;4.42;94.95
6194;BME280;3130;41.564;23.280;2023-01-28T00:55:53;98256.16;;;4.44;96.54
6194;BME280;3130;41.564;23.280;2023-01-28T00:58:22;97987.19;;;2.87;97.29
6194;BME280;3130;41.564;23.280;2023-01-28T01:00:49;98191.06;;;4.07;97.57
6194;BME280;3130;41.564;23.280;2023-01-28T01:03:17;98224.00;;;4.26;97.71
6194;BME280;3130;41.564;23.280;2023-01-28T01:05:44;98246.75;;;4.46;98.34
6194;BME280;3130;41.564;23.280;2023-01-28T01:08:12;98216.13;;;4.32;97.81
6194;BME280;3130;41.564;23.280;2023-01-28T01:10:39;98047.84;;;3.44;98.14
6194;BME280;3130;41.564;23.280;2023-01-28T01:13:07;98250.31;;;4.60;97.93
6194;BME280;3130;41.564;23.280;2023-01-28T01:15:36;98280.34;;;4.69;97.38
6194;BME280;3130;41.564;23.280;2023-01-28T01:18:03;98257.84;;;4.62;97.09
6194;BME280;3130;41.564;23.280;2023-01-28T01:20:31;98229.75;;;4.48;97.38
6194;BME280;3130;41.564;23.280;2023-01-28T01:23:04;98182.84;;;4.21;97.63
6194;BME280;3130;41.564;23.280;2023-01-28T01:25:31;98204.56;;;4.26;97.98
6194;BME280;3130;41.564;23.280;2023-01-28T01:27:58;98198.47;;;4.30;98.08
6194;BME280;3130;41.564;23.280;2023-01-28T01:30:25;98256.06;;;4.28;98.34
6194;BME280;3130;41.564;23.280;2023-01-28T01:32:54;98259.47;;;4.09;99.83
6194;BME280;3130;41.564;23.280;2023-01-28T01:35:21;98218.97;;;3.89;99.93
6194;BME280;3130;41.564;23.280;2023-01-28T01:37:48;98213.13;;;3.87;100.00
6194;BME280;3130;41.564;23.280;2023-01-28T01:40:16;98257.28;;;4.20;100.00
6194;BME280;3130;41.564;23.280;2023-01-28T01:42:43;98253.38;;;3.95;97.72
6194;BME280;3130;41.564;23.280;2023-01-28T01:45:12;98258.78;;;4.05;96.14
6194;BME280;3130;41.564;23.280;2023-01-28T01:47:44;98019.13;;;2.51;93.73
6194;BME280;3130;41.564;23.280;2023-01-28T01:50:18;98019.00;;;2.54;92.34
6194;BME280;3130;41.564;23.280;2023-01-28T01:52:50;98146.19;;;3.36;91.28
6194;BME280;3130;41.564;23.280;2023-01-28T01:55:20;98266.19;;;4.10;90.39
6194;BME280;3130;41.564;23.280;2023-01-28T01:57:50;98261.97;;;4.10;87.88
6194;BME280;3130;41.564;23.280;2023-01-28T02:00:20;98264.19;;;4.16;86.71
6194;BME280;3130;41.564;23.280;2023-01-28T02:02:49;98263.31;;;4.17;85.57
6194;BME280;3130;41.564;23.280;2023-01-28T02:05:20;98270.31;;;4.31;85.42
6194;BME280;3130;41.564;23.280;2023-01-28T02:07:50;98267.69;;;4.32;85.87
6194;BME280;3130;41.564;23.280;2023-01-28T02:10:20;98276.91;;;4.35;84.80
6194;BME280;3130;41.564;23.280;2023-01-28T02:12:51;98277.00;;;4.50;84.73
6194;BME280;3130;41.564;23.280;2023-01-28T02:15:22;98265.56;;;4.42;83.73
6194;BME280;3130;41.564;23.280;2023-01-28T02:17:51;98164.22;;;3.85;83.37
6194;BME280;3130;41.564;23.280;2023-01-28T02:20:22;98228.16;;;4.28;83.58
6194;BME280;3130;41.564;23.280;2023-01-28T02:29:03;98289.16;;;4.62;82.64
6194;BME280;3130;41.564;23.280;2023-01-28T02:31:38;98282.16;;;4.49;82.58
6194;BME280;3130;41.564;23.280;2023-01-28T02:34:13;98291.06;;;4.57;82.85
6194;BME280;3130;41.564;23.280;2023-01-28T02:36:48;98117.72;;;3.49;82.56
6194;BME280;3130;41.564;23.280;2023-01-28T02:39:19;98152.72;;;3.21;85.19
6194;BME280;3130;41.564;23.280;2023-01-28T02:41:52;98291.44;;;4.13;87.05
6194;BME280;3130;41.564;23.280;2023-01-28T02:44:25;98298.22;;;4.12;88.91
6194;BME280;3130;41.564;23.280;2023-01-28T02:46:53;98040.25;;;2.50;90.07
6194;BME280;3130;41.564;23.280;2023-01-28T02:49:41;98293.41;;;4.06;91.91
6194;BME280;3130;41.564;23.280;2023-01-28T02:52:21;98256.44;;;3.83;92.61
6194;BME280;3130;41.564;23.280;2023-01-28T02:55:17;98260.91;;;3.96;93.49
6194;BME280;3130;41.564;23.280;2023-01-28T02:57:54;98291.00;;;4.22;94.05
6194;BME280;3130;41.564;23.280;2023-01-28T03:00:29;98291.72;;;4.25;94.47
6194;BME280;3130;41.564;23.280;2023-01-28T03:03:15;98295.28;;;4.21;89.25
6194;BME280;3130;41.564;23.280;2023-01-28T03:05:47;98286.63;;;4.25;87.90
6194;BME280;3130;41.564;23.280;2023-01-28T03:08:31;98249.81;;;3.98;85.38
6194;BME280;3130;41.564;23.280;2023-01-28T03:11:17;98290.34;;;4.37;84.30
6194;BME280;3130;41.564;23.280;2023-01-28T03:14:02;98288.47;;;4.22;81.75
6194;BME280;3130;41.564;23.280;2023-01-28T03:16:49;98294.16;;;4.27;82.34
6194;BME280;3130;41.564;23.280;2023-01-28T03:19:35;98293.06;;;4.32;82.75
6194;BME280;3130;41.564;23.280;2023-01-28T03:22:20;98280.59;;;4.28;82.65
6194;BME280;3130;41.564;23.280;2023-01-28T03:25:07;98298.97;;;4.33;82.32
6194;BME280;3130;41.564;23.280;2023-01-28T03:27:55;98298.31;;;4.29;82.55
6194;BME280;3130;41.564;23.280;2023-01-28T03:30:44;98242.53;;;3.91;82.41
6194;BME280;3130;41.564;23.280;2023-01-28T03:33:34;98325.72;;;4.21;82.54
6194;BME280;3130;41.564;23.280;2023-01-28T03:36:19;98302.66;;;4.26;81.95
6194;BME280;3130;41.564;23.280;2023-01-28T03:39:04;98304.53;;;4.22;83.08
6194;BME280;3130;41.564;23.280;2023-01-28T03:41:31;98270.50;;;4.08;81.79
6194;BME280;3130;41.564;23.280;2023-01-28T03:43:58;98130.22;;;3.15;82.30
6194;BME280;3130;41.564;23.280;2023-01-28T03:46:43;98302.47;;;4.30;81.34
6194;BME280;3130;41.564;23.280;2023-01-28T03:49:11;98296.22;;;4.37;81.84
6194;BME280;3130;41.564;23.280;2023-01-28T03:51:39;98016.59;;;2.51;80.66
6194;BME280;3130;41.564;23.280;2023-01-28T03:54:06;98274.09;;;4.04;80.34
6194;BME280;3130;41.564;23.280;2023-01-28T03:56:33;98302.53;;;4.29;80.34
6194;BME280;3130;41.564;23.280;2023-01-28T03:59:02;98315.09;;;4.32;80.01
6194;BME280;3130;41.564;23.280;2023-01-28T04:01:29;98289.56;;;4.16;80.37
6194;BME280;3130;41.564;23.280;2023-01-28T04:03:56;98269.91;;;4.03;80.76
6194;BME280;3130;41.564;23.280;2023-01-28T04:06:25;98246.28;;;3.83;80.51
6194;BME280;3130;41.564;23.280;2023-01-28T04:08:53;98321.81;;;4.33;80.34
6194;BME280;3130;41.564;23.280;2023-01-28T04:11:24;98319.00;;;4.39;80.95
6194;BME280;3130;41.564;23.280;2023-01-28T04:13:51;98323.13;;;4.41;80.05
6194;BME280;3130;41.564;23.280;2023-01-28T04:16:19;98265.72;;;4.02;79.40
6194;BME280;3130;41.564;23.280;2023-01-28T04:18:46;98317.53;;;4.33;79.46
6194;BME280;3130;41.564;23.280;2023-01-28T04:21:14;98127.81;;;3.12;79.37
6194;BME280;3130;41.564;23.280;2023-01-28T04:23:42;98329.97;;;4.39;80.35
6194;BME280;3130;41.564;23.280;2023-01-28T04:26:09;98328.47;;;4.35;79.56
6194;BME280;3130;41.564;23.280;2023-01-28T04:28:37;98324.06;;;4.20;80.23
6194;BME280;3130;41.564;23.280;2023-01-28T04:31:04;98128.94;;;3.05;79.99
6194;BME280;3130;41.564;23.280;2023-01-28T04:33:31;98340.72;;;4.26;80.07
6194;BME280;3130;41.564;23.280;2023-01-28T04:35:58;98068.44;;;2.61;78.97
6194;BME280;3130;41.564;23.280;2023-01-28T04:38:25;98300.34;;;4.03;80.08
6194;BME280;3130;41.564;23.280;2023-01-28T04:40:54;98294.31;;;4.05;79.84
6194;BME280;3130;41.564;23.280;2023-01-28T04:43:21;98065.53;;;2.70;79.34
6194;BME280;3130;41.564;23.280;2023-01-28T04:45:48;98329.81;;;4.24;78.94
6194;BME280;3130;41.564;23.280;2023-01-28T04:48:15;98343.41;;;4.41;79.64
6194;BME280;3130;41.564;23.280;2023-01-28T04:50:43;98354.19;;;4.46;79.19
6194;BME280;3130;41.564;23.280;2023-01-28T04:53:11;98353.97;;;4.32;78.87
6194;BME280;3130;41.564;23.280;2023-01-28T04:55:38;98358.44;;;4.46;78.61
6194;BME280;3130;41.564;23.280;2023-01-28T04:58:07;98359.66;;;4.37;78.03
6194;BME280;3130;41.564;23.280;2023-01-28T05:00:34;98366.06;;;4.46;78.36
6194;BME280;3130;41.564;23.280;2023-01-28T05:03:02;98370.91;;;4.50;77.46
6194;BME280;3130;41.564;23.280;2023-01-28T05:05:29;98371.97;;;4.46;77.75
6194;BME280;3130;41.564;23.280;2023-01-28T05:07:57;98369.69;;;4.40;78.17
6194;BME280;3130;41.564;23.280;2023-01-28T05:10:25;98194.78;;;3.25;79.04
6194;BME280;3130;41.564;23.280;2023-01-28T05:12:52;98246.16;;;3.67;78.53
6194;BME280;3130;41.564;23.280;2023-01-28T05:15:21;98220.41;;;3.38;78.51
6194;BME280;3130;41.564;23.280;2023-01-28T05:17:48;98354.59;;;4.19;78.97
6194;BME280;3130;41.564;23.280;2023-01-28T05:20:15;98391.69;;;4.40;78.73
6194;BME280;3130;41.564;23.280;2023-01-28T05:22:43;98183.78;;;3.06;79.02
6194;BME280;3130;41.564;23.280;2023-01-28T05:25:10;98340.03;;;4.04;80.44
6194;BME280;3130;41.564;23.280;2023-01-28T05:27:37;98369.38;;;4.09;80.30
6194;BME280;3130;41.564;23.280;2023-01-28T05:30:05;98397.03;;;4.34;80.60
6194;BME280;3130;41.564;23.280;2023-01-28T05:32:34;98281.78;;;3.64;80.64
6194;BME280;3130;41.564;23.280;2023-01-28T05:35:01;98412.81;;;4.40;81.03
6194;BME280;3130;41.564;23.280;2023-01-28T05:37:28;98213.25;;;3.27;81.00
6194;BME280;3130;41.564;23.280;2023-01-28T05:39:55;98318.97;;;4.02;81.42
6194;BME280;3130;41.564;23.280;2023-01-28T05:42:23;98281.91;;;3.80;80.32
6194;BME280;3130;41.564;23.280;2023-01-28T05:44:50;98429.38;;;4.67;80.65
6194;BME280;3130;41.564;23.280;2023-01-28T05:47:17;98418.75;;;4.59;80.57
6194;BME280;3130;41.564;23.280;2023-01-28T05:49:46;98209.28;;;3.22;80.68
6194;BME280;3130;41.564;23.280;2023-01-28T05:52:13;98375.00;;;4.16;80.78
6194;BME280;3130;41.564;23.280;2023-01-28T05:54:40;98440.16;;;4.54;79.84
6194;BME280;3130;41.564;23.280;2023-01-28T05:57:07;98438.16;;;4.60;80.22
6194;BME280;3130;41.564;23.280;2023-01-28T05:59:35;98296.78;;;3.69;79.85
6194;BME280;3130;41.564;23.280;2023-01-28T06:02:02;98407.28;;;4.51;79.36
6194;BME280;3130;41.564;23.280;2023-01-28T06:04:29;98451.75;;;4.78;78.93
6194;BME280;3130;41.564;23.280;2023-01-28T06:06:58;98425.59;;;4.57;79.77
6194;BME280;3130;41.564;23.280;2023-01-28T06:09:25;98464.06;;;4.87;79.51
6194;BME280;3130;41.564;23.280;2023-01-28T06:15:14;98478.25;;;4.72;79.74
6194;BME280;3130;41.564;23.280;2023-01-28T06:17:41;98370.31;;;3.87;79.72
6194;BME280;3130;41.564;23.280;2023-01-28T06:20:10;98295.22;;;3.46;79.76
6194;BME280;3130;41.564;23.280;2023-01-28T06:22:38;98166.84;;;2.47;79.21
6194;BME280;3130;41.564;23.280;2023-01-28T06:25:07;98280.00;;;3.06;79.61
6194;BME280;3130;41.564;23.280;2023-01-28T06:27:34;98479.69;;;4.39;79.34
6194;BME280;3130;41.564;23.280;2023-01-28T06:30:01;98487.44;;;4.36;80.25
6194;BME280;3130;41.564;23.280;2023-01-28T06:32:29;98491.31;;;4.45;80.13
6194;BME280;3130;41.564;23.280;2023-01-28T06:34:57;98490.88;;;4.35;80.59
6194;BME280;3130;41.564;23.280;2023-01-28T06:37:24;98488.53;;;4.31;80.61
6194;BME280;3130;41.564;23.280;2023-01-28T06:39:53;98414.34;;;3.86;80.43
6194;BME280;3130;41.564;23.280;2023-01-28T06:42:20;98402.59;;;3.84;80.21
6194;BME280;3130;41.564;23.280;2023-01-28T06:44:47;98497.22;;;4.25;79.01
6194;BME280;3130;41.564;23.280;2023-01-28T06:47:15;98432.78;;;3.90;79.91
6194;BME280;3130;41.564;23.280;2023-01-28T06:49:42;98394.28;;;3.60;79.75
6194;BME280;3130;41.564;23.280;2023-01-28T06:52:09;98514.09;;;4.26;79.95
6194;BME280;3130;41.564;23.280;2023-01-28T06:54:36;98495.94;;;4.15;79.84
6194;BME280;3130;41.564;23.280;2023-01-28T06:57:05;98522.47;;;4.28;79.54
6194;BME280;3130;41.564;23.280;2023-01-28T06:59:32;98489.41;;;4.10;79.83
6194;BME280;3130;41.564;23.280;2023-01-28T07:01:59;98510.66;;;4.27;79.59
6194;BME280;3130;41.564;23.280;2023-01-28T07:04:26;98530.22;;;4.45;79.57
6194;BME280;3130;41.564;23.280;2023-01-28T07:06:54;98531.34;;;4.38;78.73
6194;BME280;3130;41.564;23.280;2023-01-28T07:09:21;98543.78;;;4.44;79.02
6194;BME280;3130;41.564;23.280;2023-01-28T07:11:48;98542.75;;;4.48;78.56
6194;BME280;3130;41.564;23.280;2023-01-28T07:14:17;98521.63;;;4.28;78.05
6194;BME280;3130;41.564;23.280;2023-01-28T07:16:44;98547.25;;;4.62;77.01
6194;BME280;3130;41.564;23.280;2023-01-28T07:19:11;98503.09;;;4.26;76.72
6194;BME280;3130;41.564;23.280;2023-01-28T07:21:38;98507.94;;;4.32;75.63
6194;BME280;3130;41.564;23.280;2023-01-28T07:24:06;98575.63;;;4.71;75.15
6194;BME280;3130;41.564;23.280;2023-01-28T07:26:33;98528.72;;;4.60;74.50
6194;BME280;3130;41.564;23.280;2023-01-28T07:29:01;98576.03;;;4.82;73.80
6194;BME280;3130;41.564;23.280;2023-01-28T07:31:30;98554.44;;;4.72;72.82
6194;BME280;3130;41.564;23.280;2023-01-28T07:33:57;98534.69;;;4.59;72.90
6194;BME280;3130;41.564;23.280;2023-01-28T07:36:24;98583.88;;;4.96;73.06
6194;BME280;3130;41.564;23.280;2023-01-28T07:38:52;98368.19;;;3.58;72.30
6194;BME280;3130;41.564;23.280;2023-01-28T07:41:19;98575.34;;;4.97;72.42
6194;BME280;3130;41.564;23.280;2023-01-28T07:43:46;98586.88;;;5.04;71.35
6194;BME280;3130;41.564;23.280;2023-01-28T07:46:13;98583.69;;;5.19;72.26
6194;BME280;3130;41.564;23.280;2023-01-28T07:48:42;98601.50;;;5.37;72.04
6194;BME280;3130;41.564;23.280;2023-01-28T07:51:10;98439.72;;;4.44;69.98
6194;BME280;3130;41.564;23.280;2023-01-28T07:53:37;98567.50;;;5.21;70.67
6194;BME280;3130;41.564;23.280;2023-01-28T07:56:04;98600.00;;;5.52;70.56
6194;BME280;3130;41.564;23.280;2023-01-28T07:58:32;98595.66;;;5.54;69.05
6194;BME280;3130;41.564;23.280;2023-01-28T08:01:00;98407.97;;;4.36;69.17
6194;BME280;3130;41.564;23.280;2023-01-28T08:03:27;98557.47;;;5.18;69.77
6194;BME280;3130;41.564;23.280;2023-01-28T08:05:56;98613.41;;;5.55;69.74
6194;BME280;3130;41.564;23.280;2023-01-28T08:08:24;98543.78;;;5.02;69.44
6194;BME280;3130;41.564;23.280;2023-01-28T08:10:52;98616.53;;;5.42;69.67
6194;BME280;3130;41.564;23.280;2023-01-28T08:13:19;98585.53;;;5.15;70.08
6194;BME280;3130;41.564;23.280;2023-01-28T08:15:47;98614.97;;;5.39;70.52
6194;BME280;3130;41.564;23.280;2023-01-28T08:18:15;98602.06;;;5.44;70.77
6194;BME280;3130;41.564;23.280;2023-01-28T08:20:42;98471.19;;;4.60;70.03
6194;BME280;3130;41.564;23.280;2023-01-28T08:23:14;98625.63;;;5.66;68.21
6194;BME280;3130;41.564;23.280;2023-01-28T08:25:42;98631.47;;;5.68;68.94
6194;BME280;3130;41.564;23.280;2023-01-28T08:28:11;98629.94;;;5.84;67.98
6194;BME280;3130;41.564;23.280;2023-01-28T08:30:38;98630.06;;;5.81;67.34
6194;BME280;3130;41.564;23.280;2023-01-28T08:33:06;98631.84;;;5.97;67.63
6194;BME280;3130;41.564;23.280;2023-01-28T08:35:34;98608.88;;;5.98;67.26
6194;BME280;3130;41.564;23.280;2023-01-28T08:38:03;98602.94;;;5.98;66.13
6194;BME280;3130;41.564;23.280;2023-01-28T08:40:32;98610.28;;;6.04;65.12
6194;BME280;3130;41.564;23.280;2023-01-28T08:43:00;98633.81;;;6.09;65.78
6194;BME280;3130;41.564;23.280;2023-01-28T08:45:28;98636.31;;;5.92;66.01
6194;BME280;3130;41.564;23.280;2023-01-28T08:47:58;98649.56;;;5.98;66.38
6194;BME280;3130;41.564;23.280;2023-01-28T08:50:27;98271.97;;;3.75;66.20
6194;BME280;3130;41.564;23.280;2023-01-28T08:52:58;98639.97;;;6.22;65.80
6194;BME280;3130;41.564;23.280;2023-01-28T08:55:26;98325.22;;;4.50;65.18
6194;BME280;3130;41.564;23.280;2023-01-28T08:57:55;98607.13;;;6.34;64.46
6194;BME280;3130;41.564;23.280;2023-01-28T09:00:22;98641.91;;;6.69;64.40
6194;BME280;3130;41.564;23.280;2023-01-28T09:02:50;98644.06;;;6.77;64.10
6194;BME280;3130;41.564;23.280;2023-01-28T09:05:18;98445.66;;;5.18;63.13
6194;BME280;3130;41.564;23.280;2023-01-28T09:07:45;98469.94;;;5.42;64.44
6194;BME280;3130;41.564;23.280;2023-01-28T09:10:13;98632.91;;;6.62;65.65
6194;BME280;3130;41.564;23.280;2023-01-28T09:12:40;98587.66;;;6.33;63.84
6194;BME280;3130;41.564;23.280;2023-01-28T09:15:10;98531.56;;;6.18;64.16
6194;BME280;3130;41.564;23.280;2023-01-28T09:17:37;98542.63;;;6.34;63.70
6194;BME280;3130;41.564;23.280;2023-01-28T09:20:06;98632.56;;;7.19;63.25
6194;BME280;3130;41.564;23.280;2023-01-28T09:22:33;98646.50;;;7.29;61.85
6194;BME280;3130;41.564;23.280;2023-01-28T09:25:00;98614.91;;;6.99;62.26
6194;BME280;3130;41.564;23.280;2023-01-28T09:27:27;98522.88;;;6.22;61.96
6194;BME280;3130;41.564;23.280;2023-01-28T09:30:14;98416.34;;;5.47;64.21
6194;BME280;3130;41.564;23.280;2023-01-28T09:32:41;98625.94;;;6.99;64.30
6194;BME280;3130;41.564;23.280;2023-01-28T09:35:09;98580.28;;;6.78;64.39
6194;BME280;3130;41.564;23.280;2023-01-28T09:37:36;98636.03;;;7.01;63.43
6194;BME280;3130;41.564;23.280;2023-01-28T09:40:04;98626.88;;;7.14;62.16
6194;BME280;3130;41.564;23.280;2023-01-28T09:42:46;98631.34;;;7.26;62.06
6194;BME280;3130;41.564;23.280;2023-01-28T09:45:23;98610.97;;;7.26;60.77
6194;BME280;3130;41.564;23.280;2023-01-28T09:47:53;98623.56;;;7.12;61.75
6194;BME280;3130;41.564;23.280;2023-01-28T09:50:26;98615.66;;;6.84;63.00
6194;BME280;3130;41.564;23.280;2023-01-28T09:53:01;98623.31;;;6.84;63.41
6194;BME280;3130;41.564;23.280;2023-01-28T09:55:32;98475.38;;;6.05;63.42
6194;BME280;3130;41.564;23.280;2023-01-28T09:58:03;98518.38;;;6.44;62.25
6194;BME280;3130;41.564;23.280;2023-01-28T10:00:37;98614.88;;;7.16;62.29
6194;BME280;3130;41.564;23.280;2023-01-28T10:03:25;98609.22;;;7.26;63.47
6194;BME280;3130;41.564;23.280;2023-01-28T10:06:00;98605.53;;;6.99;61.91
6194;BME280;3130;41.564;23.280;2023-01-28T10:08:46;98576.25;;;6.91;62.46
6194;BME280;3130;41.564;23.280;2023-01-28T10:11:24;98282.31;;;4.81;61.44
6194;BME280;3130;41.564;23.280;2023-01-28T10:14:03;98541.59;;;6.21;62.22
6194;BME280;3130;41.564;23.280;2023-01-28T10:16:56;98609.00;;;6.82;63.12
6194;BME280;3130;41.564;23.280;2023-01-28T10:19:30;98271.72;;;5.07;62.85
6194;BME280;3130;41.564;23.280;2023-01-28T10:22:11;98600.41;;;7.16;62.71
6194;BME280;3130;41.564;23.280;2023-01-28T10:25:02;98600.38;;;7.33;61.72
6194;BME280;3130;41.564;23.280;2023-01-28T10:27:33;98599.47;;;7.50;62.68
6194;BME280;3130;41.564;23.280;2023-01-28T10:30:15;98614.28;;;7.43;60.74
6194;BME280;3130;41.564;23.280;2023-01-28T10:32:48;98558.56;;;7.36;59.98
6194;BME280;3130;41.564;23.280;2023-01-28T10:35:17;98554.69;;;7.44;59.14
6194;BME280;3130;41.564;23.280;2023-01-28T10:37:44;98606.00;;;7.71;59.81
6194;BME280;3130;41.564;23.280;2023-01-28T10:40:14;98598.50;;;7.52;60.94
6194;BME280;3130;41.564;23.280;2023-01-28T10:42:41;98342.28;;;6.03;60.89
6194;BME280;3130;41.564;23.280;2023-01-28T10:45:16;98510.50;;;7.13;59.90
6194;BME280;3130;41.564;23.280;2023-01-28T10:47:49;98570.50;;;7.35;58.94
6194;BME280;3130;41.564;23.280;2023-01-28T10:50:23;98602.50;;;7.56;59.05
6194;BME280;3130;41.564;23.280;2023-01-28T10:52:54;98470.03;;;6.92;59.32
6194;BME280;3130;41.564;23.280;2023-01-28T10:55:23;98509.13;;;7.38;59.86
6194;BME280;3130;41.564;23.280;2023-01-28T10:57:50;98601.47;;;7.76;58.19
6194;BME280;3130;41.564;23.280;2023-01-28T11:00:22;98363.31;;;6.55;58.82
6194;BME280;3130;41.564;23.280;2023-01-28T11:02:52;98607.41;;;8.07;59.57
6194;BME280;3130;41.564;23.280;2023-01-28T11:05:24;98478.84;;;7.17;59.31
6194;BME280;3130;41.564;23.280;2023-01-28T11:08:02;98605.50;;;8.10;57.45
6194;BME280;3130;41.564;23.280;2023-01-28T11:10:32;98577.34;;;7.50;57.97
6194;BME280;3130;41.564;23.280;2023-01-28T11:13:02;98589.81;;;7.24;58.34
6194;BME280;3130;41.564;23.280;2023-01-28T11:15:31;98359.66;;;5.62;60.37
6194;BME280;3130;41.564;23.280;2023-01-28T11:18:03;98594.75;;;6.95;61.55
6194;BME280;3130;41.564;23.280;2023-01-28T11:20:37;98583.53;;;6.82;62.30
6194;BME280;3130;41.564;23.280;2023-01-28T11:23:04;98566.00;;;6.76;62.47
6194;BME280;3130;41.564;23.280;2023-01-28T11:25:33;98614.91;;;6.82;62.78
6194;BME280;3130;41.564;23.280;2023-01-28T11:28:04;98597.63;;;6.72;62.08
6194;BME280;3130;41.564;23.280;2023-01-28T11:30:34;98603.22;;;6.78;62.66
6194;BME280;3130;41.564;23.280;2023-01-28T11:33:14;98568.94;;;6.68;63.11
6194;BME280;3130;41.564;23.280;2023-01-28T11:35:52;98566.97;;;6.73;63.21
6194;BME280;3130;41.564;23.280;2023-01-28T11:38:22;98599.94;;;6.93;62.61
6194;BME280;3130;41.564;23.280;2023-01-28T11:40:50;98601.88;;;6.88;61.49
6194;BME280;3130;41.564;23.280;2023-01-28T11:43:20;98431.66;;;5.97;62.14
6194;BME280;3130;41.564;23.280;2023-01-28T11:45:51;98605.84;;;6.77;61.38
6194;BME280;3130;41.564;23.280;2023-01-28T11:48:31;98575.16;;;6.63;62.32
6194;BME280;3130;41.564;23.280;2023-01-28T11:51:03;98475.78;;;6.13;62.22
6194;BME280;3130;41.564;23.280;2023-01-28T11:54:03;98559.41;;;6.55;63.33
6194;BME280;3130;41.564;23.280;2023-01-28T11:56:52;98569.97;;;6.64;64.04
6194;BME280;3130;41.564;23.280;2023-01-28T11:59:51;98591.66;;;7.05;63.99
6194;BME280;3130;41.564;23.280;2023-01-28T12:02:42;98583.25;;;7.03;63.31
6194;BME280;3130;41.564;23.280;2023-01-28T12:05:33;98594.22;;;7.05;63.75
6194;BME280;3130;41.564;23.280;2023-01-28T12:08:08;98597.03;;;7.16;63.10
6194;BME280;3130;41.564;23.280;2023-01-28T12:10:43;98604.81;;;7.13;63.53
6194;BME280;3130;41.564;23.280;2023-01-28T12:13:32;98608.31;;;7.27;62.96
6194;BME280;3130;41.564;23.280;2023-01-28T12:16:19;98606.22;;;7.35;63.06
6194;BME280;3130;41.564;23.280;2023-01-28T12:19:08;98602.91;;;7.49;62.23
6194;BME280;3130;41.564;23.280;2023-01-28T12:21:52;98610.34;;;7.53;61.23
6194;BME280;3130;41.564;23.280;2023-01-28T12:24:36;98607.41;;;7.61;61.60
6194;BME280;3130;41.564;23.280;2023-01-28T12:27:17;98603.25;;;7.58;61.56
6194;BME280;3130;41.564;23.280;2023-01-28T12:29:53;98588.25;;;7.37;61.11
6194;BME280;3130;41.564;23.280;2023-01-28T12:32:36;98584.38;;;7.30;61.20
6194;BME280;3130;41.564;23.280;2023-01-28T12:38:07;98609.03;;;7.62;61.12
6194;BME280;3130;41.564;23.280;2023-01-28T12:40:49;98608.91;;;7.48;60.83
6194;BME280;3130;41.564;23.280;2023-01-28T12:43:23;98609.16;;;7.28;60.67
6194;BME280;3130;41.564;23.280;2023-01-28T12:45:54;98615.50;;;7.36;61.62
6194;BME280;3130;41.564;23.280;2023-01-28T12:48:27;98606.59;;;7.28;62.06
6194;BME280;3130;41.564;23.280;2023-01-28T12:51:01;98632.91;;;7.28;61.49
6194;BME280;3130;41.564;23.280;2023-01-28T12:53:37;98414.13;;;6.08;61.88
6194;BME280;3130;41.564;23.280;2023-01-28T12:56:09;98609.00;;;7.46;61.74
6194;BME280;3130;41.564;23.280;2023-01-28T12:58:46;98621.22;;;7.57;60.74
6194;BME280;3130;41.564;23.280;2023-01-28T13:01:20;98611.69;;;7.76;60.20
6194;BME280;3130;41.564;23.280;2023-01-28T13:03:53;98601.38;;;7.46;58.37
6194;BME280;3130;41.564;23.280;2023-01-28T13:06:28;98630.41;;;7.59;60.19
6194;BME280;3130;41.564;23.280;2023-01-28T13:09:01;98579.88;;;7.35;59.36
6194;BME280;3130;41.564;23.280;2023-01-28T13:11:34;98604.81;;;7.45;57.85
6194;BME280;3130;41.564;23.280;2023-01-28T13:14:02;98640.13;;;7.53;58.04
6194;BME280;3130;41.564;23.280;2023-01-28T13:16:30;98645.28;;;7.36;59.31
6194;BME280;3130;41.564;23.280;2023-01-28T13:19:06;98600.47;;;7.15;59.67
6194;BME280;3130;41.564;23.280;2023-01-28T13:21:34;98639.78;;;7.43;59.34
6194;BME280;3130;41.564;23.280;2023-01-28T13:24:19;98642.81;;;7.50;59.39
6194;BME280;3130;41.564;23.280;2023-01-28T13:26:48;98527.31;;;6.85;59.62
6194;BME280;3130;41.564;23.280;2023-01-28T13:29:34;98651.66;;;7.60;59.84
6194;BME280;3130;41.564;23.280;2023-01-28T13:32:02;98642.91;;;7.48;60.10
6194;BME280;3130;41.564;23.280;2023-01-28T13:34:57;98630.06;;;7.34;60.72
6194;BME280;3130;41.564;23.280;2023-01-28T13:37:29;98638.41;;;7.21;60.82
6194;BME280;3130;41.564;23.280;2023-01-28T13:40:03;98642.38;;;7.26;61.90
6194;BME280;3130;41.564;23.280;2023-01-28T13:42:34;98645.66;;;7.28;62.33
6194;BME280;3130;41.564;23.280;2023-01-28T13:45:22;98585.31;;;7.12;62.12
6194;BME280;3130;41.564;23.280;2023-01-28T13:47:53;98644.97;;;7.57;62.18
6194;BME280;3130;41.564;23.280;2023-01-28T13:50:23;98658.06;;;7.51;61.67
6194;BME280;3130;41.564;23.280;2023-01-28T13:52:55;98620.59;;;7.04;61.85
6194;BME280;3130;41.564;23.280;2023-01-28T13:55:30;98601.75;;;6.57;63.02
6194;BME280;3130;41.564;23.280;2023-01-28T13:58:21;98636.28;;;6.80;63.44